LOT6677 EPKT-HEGN
Flight info
| Callsign | LOT6677 |
|---|---|
| Flight time | N/A |
| Altitude | 23000 |
| Route | REGTO T195 RAZEC/N0451F350 DCT KARIL DCT ADORU/N0449F370 UG80 EKI UL854 KULAR UT39 TOMBI M855 RASDA A16 CVO L315 SOKOT SOKOT1A |
| Aircraft | B38M/M-SDE1FGHILORVWXY/HB1 |
Departure
| Time | N/A |
|---|---|
| Airport | Katowice Wojciech Korfanty International Airport (EPKT) |
Arrival
| Time | 2026-04-27 15:02 |
|---|---|
| Airport | Hurghada International Airport (HEGN) |
| Time | Latitude | Longitude | Altitude | Speed | Heading |
|---|---|---|---|---|---|
| 2026-04-27 13:36 | 36.14439 | 30.73834 | 36948 ft | 476 kts | 148° |
| 2026-04-27 13:36 | 36.11690 | 30.76117 | 36951 ft | 476 kts | 148° |
| 2026-04-27 13:36 | 36.06148 | 30.80609 | 36944 ft | 474 kts | 155° |
| 2026-04-27 13:37 | 36.03097 | 30.82035 | 36941 ft | 466 kts | 172° |
| 2026-04-27 13:37 | 35.99899 | 30.82507 | 36964 ft | 463 kts | 179° |
| 2026-04-27 13:37 | 35.93446 | 30.83049 | 36956 ft | 465 kts | 180° |
| 2026-04-27 13:38 | 35.86990 | 30.83473 | 36957 ft | 465 kts | 180° |
| 2026-04-27 13:38 | 35.80529 | 30.83866 | 36949 ft | 464 kts | 180° |
| 2026-04-27 13:39 | 35.74071 | 30.84255 | 36954 ft | 464 kts | 180° |
| 2026-04-27 13:39 | 35.67618 | 30.84643 | 36955 ft | 464 kts | 180° |
| 2026-04-27 13:40 | 35.61163 | 30.84992 | 36948 ft | 464 kts | 182° |
| 2026-04-27 13:40 | 35.54715 | 30.85199 | 36957 ft | 464 kts | 182° |
| 2026-04-27 13:41 | 35.48263 | 30.85422 | 36952 ft | 464 kts | 182° |
| 2026-04-27 13:41 | 35.41811 | 30.85645 | 36953 ft | 464 kts | 182° |
| 2026-04-27 13:42 | 35.35357 | 30.85868 | 36953 ft | 464 kts | 182° |
| 2026-04-27 13:42 | 35.28904 | 30.86091 | 36953 ft | 464 kts | 182° |
| 2026-04-27 13:43 | 35.22454 | 30.86314 | 36956 ft | 464 kts | 182° |
| 2026-04-27 13:43 | 35.16001 | 30.86532 | 36955 ft | 464 kts | 182° |
| 2026-04-27 13:44 | 35.09592 | 30.86746 | 36954 ft | 464 kts | 182° |
| 2026-04-27 13:44 | 35.03144 | 30.86961 | 36954 ft | 464 kts | 182° |
| 2026-04-27 13:45 | 34.96697 | 30.87175 | 36952 ft | 464 kts | 182° |
| 2026-04-27 13:45 | 34.90238 | 30.87389 | 36953 ft | 464 kts | 182° |
| 2026-04-27 13:46 | 34.83792 | 30.87603 | 36957 ft | 464 kts | 182° |
| 2026-04-27 13:46 | 34.77335 | 30.87816 | 36952 ft | 464 kts | 182° |
| 2026-04-27 13:47 | 34.70844 | 30.88031 | 36955 ft | 464 kts | 182° |
| 2026-04-27 13:47 | 34.64382 | 30.88244 | 36953 ft | 464 kts | 182° |
| 2026-04-27 13:48 | 34.57929 | 30.88539 | 36952 ft | 465 kts | 181° |
| 2026-04-27 13:48 | 34.51467 | 30.88855 | 36956 ft | 464 kts | 181° |
| 2026-04-27 13:49 | 34.45008 | 30.89167 | 36949 ft | 465 kts | 181° |
| 2026-04-27 13:49 | 34.38546 | 30.89479 | 36949 ft | 465 kts | 181° |
| 2026-04-27 13:50 | 34.32084 | 30.89791 | 36962 ft | 465 kts | 181° |
| 2026-04-27 13:50 | 34.25621 | 30.90103 | 36955 ft | 465 kts | 181° |
| 2026-04-27 13:51 | 34.19154 | 30.90462 | 36960 ft | 465 kts | 181° |
| 2026-04-27 13:51 | 34.12640 | 30.90822 | 36954 ft | 465 kts | 181° |
| 2026-04-27 13:52 | 34.06167 | 30.91178 | 36961 ft | 465 kts | 181° |
| 2026-04-27 13:52 | 33.99698 | 30.91534 | 36963 ft | 466 kts | 181° |
| 2026-04-27 13:53 | 33.89987 | 30.91954 | 36956 ft | 465 kts | 182° |
| 2026-04-27 13:54 | 33.83514 | 30.92201 | 36955 ft | 465 kts | 182° |
| 2026-04-27 13:54 | 33.77039 | 30.92449 | 36958 ft | 466 kts | 182° |
| 2026-04-27 13:55 | 33.71613 | 30.92657 | 36960 ft | 466 kts | 182° |
| 2026-04-27 13:55 | 33.64077 | 30.92946 | 36959 ft | 466 kts | 182° |
| 2026-04-27 13:56 | 33.57593 | 30.93193 | 36960 ft | 466 kts | 182° |
| 2026-04-27 13:56 | 33.52165 | 30.93401 | 36962 ft | 466 kts | 182° |
| 2026-04-27 13:57 | 33.45721 | 30.93646 | 36963 ft | 466 kts | 182° |
| 2026-04-27 13:57 | 33.39231 | 30.93893 | 36963 ft | 467 kts | 182° |
| 2026-04-27 13:58 | 33.32739 | 30.94139 | 36964 ft | 467 kts | 182° |
| 2026-04-27 13:58 | 33.26249 | 30.94386 | 36961 ft | 467 kts | 182° |
| 2026-04-27 13:59 | 33.19749 | 30.94631 | 36960 ft | 467 kts | 183° |
| 2026-04-27 13:59 | 33.13251 | 30.94878 | 36962 ft | 467 kts | 182° |
| 2026-04-27 14:00 | 33.06751 | 30.95459 | 36972 ft | 470 kts | 179° |
| 2026-04-27 14:00 | 33.00241 | 30.96209 | 36967 ft | 470 kts | 179° |
| 2026-04-27 14:01 | 32.93729 | 30.96932 | 36964 ft | 470 kts | 179° |
| 2026-04-27 14:01 | 32.87214 | 30.97653 | 36963 ft | 470 kts | 179° |
| 2026-04-27 14:02 | 32.80703 | 30.98372 | 36964 ft | 470 kts | 179° |
| 2026-04-27 14:02 | 32.74187 | 30.99090 | 36964 ft | 470 kts | 179° |
| 2026-04-27 14:03 | 32.67670 | 30.99807 | 36963 ft | 470 kts | 179° |
| 2026-04-27 14:03 | 32.61152 | 31.00524 | 36966 ft | 471 kts | 179° |
| 2026-04-27 14:04 | 32.54633 | 31.01239 | 36965 ft | 471 kts | 180° |
| 2026-04-27 14:04 | 32.48109 | 31.01954 | 36964 ft | 470 kts | 180° |
| 2026-04-27 14:05 | 32.41588 | 31.02668 | 36964 ft | 471 kts | 180° |
| 2026-04-27 14:05 | 32.35111 | 31.03376 | 36965 ft | 471 kts | 180° |
| 2026-04-27 14:06 | 32.28548 | 31.04092 | 36964 ft | 471 kts | 180° |
| 2026-04-27 14:06 | 32.22068 | 31.04798 | 36963 ft | 471 kts | 180° |
| 2026-04-27 14:07 | 32.15543 | 31.05508 | 36962 ft | 471 kts | 180° |
| 2026-04-27 14:07 | 32.09020 | 31.06217 | 36961 ft | 471 kts | 180° |
| 2026-04-27 14:08 | 32.02493 | 31.06924 | 36962 ft | 471 kts | 180° |
| 2026-04-27 14:08 | 31.95962 | 31.07628 | 36963 ft | 471 kts | 180° |
| 2026-04-27 14:09 | 31.89435 | 31.08332 | 36972 ft | 471 kts | 180° |
| 2026-04-27 14:09 | 31.82903 | 31.09034 | 36970 ft | 472 kts | 180° |
| 2026-04-27 14:10 | 31.76366 | 31.09736 | 36970 ft | 471 kts | 180° |
| 2026-04-27 14:10 | 31.69833 | 31.10437 | 36972 ft | 471 kts | 180° |
| 2026-04-27 14:11 | 31.63301 | 31.11137 | 36974 ft | 471 kts | 180° |
| 2026-04-27 14:11 | 31.56768 | 31.11835 | 36978 ft | 471 kts | 180° |
| 2026-04-27 14:12 | 31.50245 | 31.12826 | 36992 ft | 474 kts | 176° |
| 2026-04-27 14:12 | 31.43727 | 31.14056 | 36973 ft | 474 kts | 176° |
| 2026-04-27 14:13 | 31.37205 | 31.15250 | 36969 ft | 474 kts | 177° |
| 2026-04-27 14:13 | 31.30680 | 31.16439 | 36980 ft | 475 kts | 177° |
| 2026-04-27 14:14 | 31.24156 | 31.17633 | 36975 ft | 475 kts | 176° |
| 2026-04-27 14:14 | 31.17630 | 31.18852 | 36972 ft | 475 kts | 177° |
| 2026-04-27 14:15 | 31.11147 | 31.20060 | 36975 ft | 475 kts | 177° |
| 2026-04-27 14:15 | 31.04616 | 31.21275 | 36976 ft | 475 kts | 177° |
| 2026-04-27 14:16 | 30.98080 | 31.22488 | 36973 ft | 476 kts | 177° |
| 2026-04-27 14:16 | 30.91552 | 31.23699 | 36966 ft | 476 kts | 177° |
| 2026-04-27 14:17 | 30.85006 | 31.24912 | 36965 ft | 476 kts | 177° |
| 2026-04-27 14:17 | 30.78460 | 31.26122 | 36970 ft | 477 kts | 177° |
| 2026-04-27 14:18 | 30.71906 | 31.27333 | 36965 ft | 477 kts | 177° |
| 2026-04-27 14:18 | 30.65349 | 31.28543 | 36967 ft | 477 kts | 177° |
| 2026-04-27 14:19 | 30.58791 | 31.29751 | 36967 ft | 477 kts | 177° |
| 2026-04-27 14:19 | 30.52235 | 31.30957 | 36970 ft | 477 kts | 177° |
| 2026-04-27 14:20 | 30.45672 | 31.32163 | 36962 ft | 478 kts | 178° |
| 2026-04-27 14:20 | 30.39106 | 31.33370 | 36963 ft | 478 kts | 178° |
| 2026-04-27 14:21 | 30.32538 | 31.34576 | 36962 ft | 478 kts | 178° |
| 2026-04-27 14:21 | 30.25972 | 31.35780 | 36966 ft | 478 kts | 178° |
| 2026-04-27 14:22 | 30.19403 | 31.36982 | 36966 ft | 478 kts | 178° |
| 2026-04-27 14:22 | 30.12830 | 31.38188 | 36965 ft | 479 kts | 176° |
| 2026-04-27 14:22 | 30.09596 | 31.39257 | 36944 ft | 490 kts | 161° |
| 2026-04-27 14:23 | 30.06613 | 31.41244 | 36971 ft | 501 kts | 149° |
| 2026-04-27 14:23 | 30.00941 | 31.45963 | 36962 ft | 504 kts | 149° |
| 2026-04-27 14:24 | 29.95291 | 31.50757 | 36963 ft | 504 kts | 149° |
| 2026-04-27 14:24 | 29.89652 | 31.55563 | 36967 ft | 505 kts | 149° |
| 2026-04-27 14:25 | 29.84001 | 31.60374 | 36966 ft | 505 kts | 149° |
| 2026-04-27 14:25 | 29.78345 | 31.65182 | 36971 ft | 505 kts | 149° |
| 2026-04-27 14:26 | 29.72685 | 31.69986 | 36978 ft | 506 kts | 149° |
| 2026-04-27 14:26 | 29.67020 | 31.74788 | 36971 ft | 506 kts | 149° |
| 2026-04-27 14:27 | 29.61347 | 31.79590 | 36979 ft | 507 kts | 149° |
| 2026-04-27 14:27 | 29.55665 | 31.84392 | 36975 ft | 507 kts | 149° |
| 2026-04-27 14:28 | 29.49981 | 31.89192 | 36986 ft | 508 kts | 149° |
| 2026-04-27 14:28 | 29.44282 | 31.93993 | 36974 ft | 508 kts | 150° |
| 2026-04-27 14:29 | 29.38620 | 31.98758 | 36969 ft | 508 kts | 150° |
| 2026-04-27 14:29 | 29.32917 | 32.03551 | 36970 ft | 508 kts | 150° |
| 2026-04-27 14:30 | 29.27212 | 32.08339 | 36968 ft | 509 kts | 150° |
| 2026-04-27 14:30 | 29.21499 | 32.13127 | 36969 ft | 509 kts | 150° |
| 2026-04-27 14:31 | 29.15782 | 32.17911 | 36959 ft | 509 kts | 150° |
| 2026-04-27 14:31 | 29.10021 | 32.22726 | 36957 ft | 510 kts | 150° |
| 2026-04-27 14:32 | 29.04334 | 32.27471 | 36957 ft | 510 kts | 150° |
| 2026-04-27 14:32 | 28.98599 | 32.32251 | 36949 ft | 510 kts | 150° |
| 2026-04-27 14:33 | 28.92863 | 32.37024 | 36950 ft | 511 kts | 150° |
| 2026-04-27 14:33 | 28.87115 | 32.41800 | 36932 ft | 511 kts | 150° |
| 2026-04-27 14:34 | 28.81365 | 32.46572 | 36949 ft | 512 kts | 151° |
| 2026-04-27 14:34 | 28.75591 | 32.51357 | 36935 ft | 513 kts | 151° |
| 2026-04-27 14:35 | 28.69826 | 32.56128 | 36721 ft | 510 kts | 151° |
| 2026-04-27 14:35 | 28.66954 | 32.58503 | 36055 ft | 509 kts | 151° |
| 2026-04-27 14:35 | 28.64094 | 32.60866 | 35440 ft | 508 kts | 150° |
| 2026-04-27 14:35 | 28.61240 | 32.63223 | 34819 ft | 507 kts | 150° |
| 2026-04-27 14:36 | 28.58388 | 32.65575 | 34190 ft | 506 kts | 150° |
| 2026-04-27 14:36 | 28.55536 | 32.67926 | 33499 ft | 505 kts | 149° |
| 2026-04-27 14:36 | 28.52695 | 32.70266 | 32787 ft | 504 kts | 149° |
| 2026-04-27 14:36 | 28.49862 | 32.72599 | 32086 ft | 502 kts | 149° |
| 2026-04-27 14:37 | 28.47035 | 32.74924 | 31404 ft | 500 kts | 149° |
| 2026-04-27 14:37 | 28.44220 | 32.77239 | 30723 ft | 498 kts | 148° |
| 2026-04-27 14:37 | 28.41421 | 32.79539 | 30035 ft | 497 kts | 148° |
| 2026-04-27 14:37 | 28.38632 | 32.81828 | 29443 ft | 491 kts | 148° |
| 2026-04-27 14:38 | 28.35885 | 32.84081 | 28898 ft | 484 kts | 148° |
| 2026-04-27 14:38 | 28.33167 | 32.86310 | 28388 ft | 478 kts | 148° |
| 2026-04-27 14:38 | 28.30492 | 32.88503 | 27917 ft | 471 kts | 148° |
| 2026-04-27 14:38 | 28.27849 | 32.90667 | 27473 ft | 465 kts | 148° |
| 2026-04-27 14:39 | 28.25242 | 32.92801 | 27020 ft | 459 kts | 148° |
| 2026-04-27 14:39 | 28.22666 | 32.94907 | 26585 ft | 454 kts | 148° |
| 2026-04-27 14:39 | 28.20120 | 32.96989 | 26159 ft | 449 kts | 148° |
| 2026-04-27 14:39 | 28.17598 | 32.99050 | 25749 ft | 444 kts | 148° |
| 2026-04-27 14:40 | 28.15105 | 33.01086 | 25353 ft | 439 kts | 148° |
| 2026-04-27 14:40 | 28.12641 | 33.03097 | 24969 ft | 434 kts | 148° |
| 2026-04-27 14:40 | 28.10204 | 33.05085 | 24606 ft | 429 kts | 148° |
| 2026-04-27 14:40 | 28.07799 | 33.07046 | 24312 ft | 423 kts | 148° |
| 2026-04-27 14:41 | 28.05430 | 33.08977 | 24061 ft | 416 kts | 148° |
| 2026-04-27 14:41 | 28.03106 | 33.10869 | 23880 ft | 407 kts | 148° |
| 2026-04-27 14:41 | 28.00832 | 33.12716 | 23723 ft | 398 kts | 148° |
| 2026-04-27 14:41 | 27.98607 | 33.14525 | 23513 ft | 391 kts | 148° |
| 2026-04-27 14:42 | 27.96402 | 33.16318 | 23100 ft | 389 kts | 148° |
| 2026-04-27 14:42 | 27.94951 | 33.17496 | 22840 ft | 387 kts | 148° |
| 2026-04-27 14:42 | 27.92771 | 33.19267 | 22446 ft | 385 kts | 148° |
| 2026-04-27 14:42 | 27.90604 | 33.21026 | 22063 ft | 382 kts | 148° |
| 2026-04-27 14:43 | 27.88451 | 33.22774 | 21688 ft | 380 kts | 148° |
| 2026-04-27 14:43 | 27.86309 | 33.24511 | 21312 ft | 378 kts | 148° |
| 2026-04-27 14:43 | 27.84180 | 33.26237 | 20934 ft | 376 kts | 148° |
| 2026-04-27 14:43 | 27.82061 | 33.27954 | 20566 ft | 374 kts | 148° |
| 2026-04-27 14:44 | 27.79955 | 33.29659 | 20227 ft | 372 kts | 148° |
| 2026-04-27 14:44 | 27.77855 | 33.31359 | 19850 ft | 370 kts | 148° |
| 2026-04-27 14:44 | 27.75769 | 33.33047 | 19495 ft | 368 kts | 148° |
| 2026-04-27 14:44 | 27.73690 | 33.34728 | 19146 ft | 366 kts | 148° |
| 2026-04-27 14:45 | 27.71623 | 33.36399 | 18798 ft | 365 kts | 148° |
| 2026-04-27 14:45 | 27.69565 | 33.38062 | 18454 ft | 363 kts | 148° |
| 2026-04-27 14:45 | 27.67517 | 33.39716 | 18102 ft | 361 kts | 148° |
| 2026-04-27 14:45 | 27.65464 | 33.41372 | 17520 ft | 365 kts | 148° |
| 2026-04-27 14:46 | 27.63387 | 33.43047 | 17022 ft | 367 kts | 148° |
| 2026-04-27 14:46 | 27.61312 | 33.44721 | 16636 ft | 365 kts | 148° |
| 2026-04-27 14:46 | 27.59252 | 33.46381 | 16267 ft | 363 kts | 148° |
| 2026-04-27 14:46 | 27.57201 | 33.48034 | 15912 ft | 361 kts | 148° |
| 2026-04-27 14:47 | 27.55165 | 33.49673 | 15555 ft | 359 kts | 148° |
| 2026-04-27 14:47 | 27.53138 | 33.51305 | 15208 ft | 357 kts | 148° |
| 2026-04-27 14:47 | 27.51052 | 33.52772 | 14830 ft | 350 kts | 160° |
| 2026-04-27 14:47 | 27.48826 | 33.53848 | 14479 ft | 348 kts | 161° |
| 2026-04-27 14:48 | 27.46612 | 33.54920 | 14150 ft | 345 kts | 161° |
| 2026-04-27 14:48 | 27.42197 | 33.57064 | 13067 ft | 351 kts | 161° |
| 2026-04-27 14:48 | 27.39926 | 33.58167 | 12638 ft | 350 kts | 161° |
| 2026-04-27 14:49 | 27.37697 | 33.59250 | 12237 ft | 348 kts | 161° |
| 2026-04-27 14:49 | 27.35506 | 33.60291 | 11887 ft | 344 kts | 166° |
| 2026-04-27 14:49 | 27.33233 | 33.60970 | 11648 ft | 333 kts | 171° |
| 2026-04-27 14:49 | 27.31015 | 33.61600 | 11480 ft | 324 kts | 171° |
| 2026-04-27 14:50 | 27.28837 | 33.62240 | 11350 ft | 315 kts | 171° |
| 2026-04-27 14:50 | 27.26750 | 33.62864 | 11219 ft | 305 kts | 171° |
| 2026-04-27 14:50 | 27.24735 | 33.63474 | 11092 ft | 296 kts | 171° |
| 2026-04-27 14:50 | 27.22774 | 33.64071 | 10943 ft | 288 kts | 171° |
| 2026-04-27 14:51 | 27.20871 | 33.64652 | 10641 ft | 287 kts | 171° |
| 2026-04-27 14:51 | 27.18948 | 33.65238 | 10358 ft | 285 kts | 171° |
| 2026-04-27 14:51 | 27.17034 | 33.65804 | 10067 ft | 284 kts | 172° |
| 2026-04-27 14:51 | 27.15128 | 33.66368 | 9790 ft | 282 kts | 172° |
| 2026-04-27 14:52 | 27.13234 | 33.66929 | 9466 ft | 281 kts | 172° |
| 2026-04-27 14:52 | 27.11354 | 33.67486 | 9108 ft | 278 kts | 172° |
| 2026-04-27 14:52 | 27.09481 | 33.68041 | 8572 ft | 278 kts | 171° |
| 2026-04-27 14:52 | 27.07617 | 33.68594 | 8089 ft | 276 kts | 171° |
| 2026-04-27 14:53 | 27.05755 | 33.69145 | 7701 ft | 276 kts | 171° |
| 2026-04-27 14:53 | 27.03904 | 33.69693 | 7399 ft | 275 kts | 171° |
| 2026-04-27 14:53 | 27.02063 | 33.70238 | 6931 ft | 274 kts | 169° |
| 2026-04-27 14:53 | 27.00220 | 33.70782 | 6675 ft | 271 kts | 169° |
| 2026-04-27 14:54 | 26.98443 | 33.71308 | 6613 ft | 259 kts | 170° |
| 2026-04-27 14:54 | 26.96737 | 33.71812 | 6515 ft | 248 kts | 170° |
| 2026-04-27 14:54 | 26.95101 | 33.72306 | 6373 ft | 241 kts | 167° |
| 2026-04-27 14:54 | 26.93659 | 33.73284 | 5979 ft | 250 kts | 133° |
| 2026-04-27 14:55 | 26.92886 | 33.74981 | 5782 ft | 242 kts | 98° |
| 2026-04-27 14:55 | 26.92951 | 33.76826 | 5357 ft | 235 kts | 66° |
| 2026-04-27 14:55 | 26.93700 | 33.78406 | 4953 ft | 229 kts | 51° |
| 2026-04-27 14:55 | 26.94577 | 33.79885 | 4629 ft | 225 kts | 51° |
| 2026-04-27 14:56 | 26.95427 | 33.81299 | 4431 ft | 213 kts | 49° |
| 2026-04-27 14:56 | 26.96246 | 33.82647 | 4145 ft | 207 kts | 48° |
| 2026-04-27 14:56 | 26.97137 | 33.83890 | 3690 ft | 200 kts | 28° |
| 2026-04-27 14:56 | 26.98351 | 33.84403 | 3382 ft | 180 kts | 358° |
| 2026-04-27 14:57 | 26.99588 | 33.84357 | 3238 ft | 173 kts | 348° |
| 2026-04-27 14:57 | 27.00740 | 33.84110 | 3063 ft | 165 kts | 343° |
| 2026-04-27 14:57 | 27.01846 | 33.83810 | 2859 ft | 162 kts | 343° |
| 2026-04-27 14:57 | 27.02924 | 33.83501 | 2657 ft | 158 kts | 342° |
| 2026-04-27 14:58 | 27.03982 | 33.83192 | 2461 ft | 156 kts | 343° |
| 2026-04-27 14:58 | 27.05029 | 33.82884 | 2273 ft | 155 kts | 343° |
| 2026-04-27 14:58 | 27.06066 | 33.82580 | 2080 ft | 153 kts | 342° |
| 2026-04-27 14:58 | 27.07074 | 33.82284 | 1892 ft | 145 kts | 342° |
| 2026-04-27 14:59 | 27.08030 | 33.82003 | 1707 ft | 140 kts | 342° |
| 2026-04-27 14:59 | 27.08969 | 33.81726 | 1518 ft | 137 kts | 342° |
| 2026-04-27 14:59 | 27.09871 | 33.81460 | 1355 ft | 131 kts | 342° |
| 2026-04-27 14:59 | 27.10749 | 33.81201 | 1191 ft | 131 kts | 344° |
| 2026-04-27 15:00 | 27.11643 | 33.80935 | 1011 ft | 135 kts | 345° |
| 2026-04-27 15:00 | 27.12545 | 33.80667 | 804 ft | 133 kts | 347° |
| 2026-04-27 15:00 | 27.13461 | 33.80407 | 639 ft | 137 kts | 349° |
| 2026-04-27 15:00 | 27.14376 | 33.80137 | 452 ft | 136 kts | 348° |
| 2026-04-27 15:01 | 27.15308 | 33.79865 | 283 ft | 137 kts | 346° |
| 2026-04-27 15:01 | 27.16211 | 33.79595 | 125 ft | 130 kts | 347° |
| 2026-04-27 15:01 | 27.16964 | 33.79372 | 112 ft | 89 kts | 345° |
| 2026-04-27 15:01 | 27.17423 | 33.79235 | 102 ft | 58 kts | 345° |
| 2026-04-27 15:02 | 27.17801 | 33.79159 | 103 ft | 45 kts | 5° |
| 2026-04-27 15:02 | 27.17959 | 33.79248 | 100 ft | 18 kts | 95° |
| 2026-04-27 15:02 | 27.17876 | 33.79301 | 100 ft | 16 kts | 167° |
| 2026-04-27 15:02 | 27.17759 | 33.79334 | 100 ft | 18 kts | 166° |
| 2026-04-27 15:03 | 27.17637 | 33.79371 | 101 ft | 19 kts | 164° |
| 2026-04-27 15:03 | 27.17505 | 33.79409 | 101 ft | 21 kts | 165° |
| 2026-04-27 15:03 | 27.17375 | 33.79447 | 103 ft | 17 kts | 165° |
| 2026-04-27 15:03 | 27.17274 | 33.79478 | 105 ft | 14 kts | 158° |
| 2026-04-27 15:04 | 27.17247 | 33.79583 | 100 ft | 19 kts | 75° |
| 2026-04-27 15:04 | 27.17289 | 33.79755 | 84 ft | 27 kts | 75° |
| 2026-04-27 15:04 | 27.17342 | 33.79977 | 59 ft | 26 kts | 81° |
| 2026-04-27 15:04 | 27.17377 | 33.80125 | 55 ft | 19 kts | 74° |
| 2026-04-27 15:05 | 27.17414 | 33.80276 | 54 ft | 17 kts | 75° |
| 2026-04-27 15:05 | 27.17431 | 33.80346 | 53 ft | 7 kts | 67° |
| 2026-04-27 15:05 | 27.17471 | 33.80379 | 53 ft | 8 kts | 7° |
| 2026-04-27 15:05 | 27.17530 | 33.80367 | 52 ft | 10 kts | 347° |
| 2026-04-27 15:06 | 27.17618 | 33.80342 | 51 ft | 17 kts | 345° |
| 2026-04-27 15:06 | 27.17737 | 33.80306 | 55 ft | 11 kts | 346° |
| 2026-04-27 15:06 | 27.17829 | 33.80279 | 56 ft | 18 kts | 344° |
| 2026-04-27 15:06 | 27.17977 | 33.80236 | 56 ft | 26 kts | 345° |
| 2026-04-27 15:07 | 27.18168 | 33.80179 | 53 ft | 27 kts | 346° |
| 2026-04-27 15:07 | 27.18360 | 33.80121 | 53 ft | 29 kts | 346° |
| 2026-04-27 15:07 | 27.18485 | 33.80086 | 50 ft | 15 kts | 345° |
| 2026-04-27 15:07 | 27.18564 | 33.80119 | 55 ft | 12 kts | 67° |
| 2026-04-27 15:08 | 27.18581 | 33.80192 | 60 ft | 7 kts | 75° |
| 2026-04-27 15:08 | 27.18597 | 33.80256 | 56 ft | 10 kts | 75° |
| 2026-04-27 15:08 | 27.18618 | 33.80348 | 60 ft | 13 kts | 75° |
| 2026-04-27 15:08 | 27.18685 | 33.80381 | 54 ft | 11 kts | 345° |
| 2026-04-27 15:09 | 27.18755 | 33.80360 | 59 ft | 10 kts | 345° |
| 2026-04-27 15:09 | 27.18824 | 33.80339 | 58 ft | 11 kts | 345° |
| 2026-04-27 15:09 | 27.18906 | 33.80315 | 56 ft | 14 kts | 346° |
| 2026-04-27 15:09 | 27.19000 | 33.80289 | 58 ft | 11 kts | 346° |
| 2026-04-27 15:10 | 27.19045 | 33.80308 | 53 ft | 6 kts | 66° |
| 2026-04-27 15:10 | 27.19053 | 33.80336 | 56 ft | 2 kts | 75° |
| 2026-04-27 15:10 | 27.19055 | 33.80346 | 56 ft | 1 kts | 75° |
| 2026-04-27 15:10 | 27.19056 | 33.80348 | 55 ft | 0 kts | 75° |
| 2026-04-27 15:20 | 27.19056 | 33.80347 | 56 ft | 0 kts | 75° |